CYOW

Ottawa/Macdonald-Cartier International Airport

Ottawa, , Canada
METAR CYOW 170700Z 27004KT 15SM SKC M20/M22 A3027 RMK SLP261
Observed Flight Rules
Dec-17 @ 07:00 UTC (an hour ago) Visual Flight Rules
Wind Visibility Clouds
270° at 4 knots 15 miles
  • Clear skies
Temperatures Readings
Current -20°C / -4°F
Dewpoint -22°C / -8°F
Humidity 84%
Altimeter 30.27" Hg
Pressure 1026.1 hPa
Elevation 114
METAR CYOW 170700Z 27004KT 15SM SKC M20/M22 A3027 RMK SLP261
Observed Flight Rules
Dec-17 @ 07:00 UTC
(an hour ago)
VFR
Wind Visibility
270° at 4 knots 15 miles
Clouds
  • Clear skies
Temperature Dewpoint
-20°C / -4°F -22°C / -8°F
Humidity Altimeter Pressure
84% 30.27" Hg 1026.1 hPa